sensor_id;sensor_type;location;lat;lon;timestamp;P1;durP1;ratioP1;P2;durP2;ratioP2
10090;SDS011;5084;51.386;6.778;2023-04-25T00:00:36;9.97;;;4.37;;
10090;SDS011;5084;51.386;6.778;2023-04-25T00:03:02;6.93;;;3.90;;
10090;SDS011;5084;51.386;6.778;2023-04-25T00:05:30;5.63;;;3.87;;
10090;SDS011;5084;51.386;6.778;2023-04-25T00:07:57;7.80;;;4.83;;
10090;SDS011;5084;51.386;6.778;2023-04-25T00:10:24;7.90;;;4.23;;
10090;SDS011;5084;51.386;6.778;2023-04-25T00:12:50;6.10;;;3.37;;
10090;SDS011;5084;51.386;6.778;2023-04-25T00:15:17;6.70;;;4.00;;
10090;SDS011;5084;51.386;6.778;2023-04-25T00:17:43;6.17;;;3.50;;
10090;SDS011;5084;51.386;6.778;2023-04-25T00:20:11;7.00;;;4.00;;
10090;SDS011;5084;51.386;6.778;2023-04-25T00:22:37;6.20;;;3.60;;
10090;SDS011;5084;51.386;6.778;2023-04-25T00:25:04;4.70;;;3.60;;
10090;SDS011;5084;51.386;6.778;2023-04-25T00:27:31;4.13;;;3.20;;
10090;SDS011;5084;51.386;6.778;2023-04-25T00:29:58;6.67;;;3.77;;
10090;SDS011;5084;51.386;6.778;2023-04-25T00:32:25;5.03;;;3.60;;
10090;SDS011;5084;51.386;6.778;2023-04-25T00:34:51;5.93;;;3.50;;
10090;SDS011;5084;51.386;6.778;2023-04-25T00:37:18;6.97;;;3.87;;
10090;SDS011;5084;51.386;6.778;2023-04-25T00:39:44;10.50;;;4.03;;
10090;SDS011;5084;51.386;6.778;2023-04-25T00:42:11;5.07;;;3.63;;
10090;SDS011;5084;51.386;6.778;2023-04-25T00:44:37;5.30;;;3.80;;
10090;SDS011;5084;51.386;6.778;2023-04-25T00:47:04;7.50;;;4.53;;
10090;SDS011;5084;51.386;6.778;2023-04-25T00:49:31;5.77;;;3.80;;
10090;SDS011;5084;51.386;6.778;2023-04-25T00:51:57;7.87;;;3.87;;
10090;SDS011;5084;51.386;6.778;2023-04-25T00:54:23;5.70;;;3.20;;
10090;SDS011;5084;51.386;6.778;2023-04-25T00:56:50;6.10;;;3.60;;
10090;SDS011;5084;51.386;6.778;2023-04-25T00:59:17;5.07;;;3.10;;
10090;SDS011;5084;51.386;6.778;2023-04-25T01:01:44;8.40;;;4.10;;
10090;SDS011;5084;51.386;6.778;2023-04-25T01:04:10;6.13;;;3.70;;
10090;SDS011;5084;51.386;6.778;2023-04-25T01:06:36;5.20;;;3.37;;
10090;SDS011;5084;51.386;6.778;2023-04-25T01:09:03;6.27;;;3.70;;
10090;SDS011;5084;51.386;6.778;2023-04-25T01:11:30;8.00;;;3.57;;
10090;SDS011;5084;51.386;6.778;2023-04-25T01:13:56;6.77;;;3.77;;
10090;SDS011;5084;51.386;6.778;2023-04-25T01:16:22;6.10;;;3.63;;
10090;SDS011;5084;51.386;6.778;2023-04-25T01:18:49;9.27;;;3.80;;
10090;SDS011;5084;51.386;6.778;2023-04-25T01:21:16;5.33;;;3.13;;
10090;SDS011;5084;51.386;6.778;2023-04-25T01:23:42;4.83;;;2.87;;
10090;SDS011;5084;51.386;6.778;2023-04-25T01:26:09;8.40;;;3.10;;
10090;SDS011;5084;51.386;6.778;2023-04-25T01:28:35;8.50;;;3.80;;
10090;SDS011;5084;51.386;6.778;2023-04-25T01:31:02;8.03;;;3.77;;
10090;SDS011;5084;51.386;6.778;2023-04-25T01:33:28;6.00;;;3.73;;
10090;SDS011;5084;51.386;6.778;2023-04-25T01:35:54;3.93;;;2.97;;
10090;SDS011;5084;51.386;6.778;2023-04-25T01:38:20;5.37;;;3.30;;
10090;SDS011;5084;51.386;6.778;2023-04-25T01:40:47;4.07;;;3.20;;
10090;SDS011;5084;51.386;6.778;2023-04-25T01:43:15;6.67;;;3.57;;
10090;SDS011;5084;51.386;6.778;2023-04-25T01:45:41;6.30;;;3.73;;
10090;SDS011;5084;51.386;6.778;2023-04-25T01:48:08;8.53;;;3.80;;
10090;SDS011;5084;51.386;6.778;2023-04-25T01:50:34;6.33;;;3.00;;
10090;SDS011;5084;51.386;6.778;2023-04-25T01:53:00;6.57;;;3.97;;
10090;SDS011;5084;51.386;6.778;2023-04-25T01:55:29;5.07;;;3.70;;
10090;SDS011;5084;51.386;6.778;2023-04-25T01:57:55;5.03;;;3.23;;
10090;SDS011;5084;51.386;6.778;2023-04-25T02:00:22;8.07;;;4.00;;
10090;SDS011;5084;51.386;6.778;2023-04-25T02:02:48;4.57;;;3.07;;
10090;SDS011;5084;51.386;6.778;2023-04-25T02:05:15;3.77;;;3.07;;
10090;SDS011;5084;51.386;6.778;2023-04-25T02:07:41;5.50;;;3.10;;
10090;SDS011;5084;51.386;6.778;2023-04-25T02:10:08;3.10;;;2.70;;
10090;SDS011;5084;51.386;6.778;2023-04-25T02:12:35;4.27;;;3.20;;
10090;SDS011;5084;51.386;6.778;2023-04-25T02:15:01;5.80;;;3.00;;
10090;SDS011;5084;51.386;6.778;2023-04-25T02:17:27;4.93;;;3.00;;
10090;SDS011;5084;51.386;6.778;2023-04-25T02:19:53;4.80;;;2.70;;
10090;SDS011;5084;51.386;6.778;2023-04-25T02:22:19;4.73;;;3.07;;
10090;SDS011;5084;51.386;6.778;2023-04-25T02:24:45;5.77;;;2.73;;
10090;SDS011;5084;51.386;6.778;2023-04-25T02:27:11;6.77;;;3.17;;
10090;SDS011;5084;51.386;6.778;2023-04-25T02:29:37;6.27;;;3.30;;
10090;SDS011;5084;51.386;6.778;2023-04-25T02:32:04;5.10;;;3.03;;
10090;SDS011;5084;51.386;6.778;2023-04-25T02:34:30;6.10;;;3.03;;
10090;SDS011;5084;51.386;6.778;2023-04-25T02:36:56;5.53;;;2.90;;
10090;SDS011;5084;51.386;6.778;2023-04-25T02:39:22;5.07;;;3.13;;
10090;SDS011;5084;51.386;6.778;2023-04-25T02:41:50;5.37;;;2.73;;
10090;SDS011;5084;51.386;6.778;2023-04-25T02:44:16;4.23;;;2.67;;
10090;SDS011;5084;51.386;6.778;2023-04-25T02:46:42;3.97;;;2.80;;
10090;SDS011;5084;51.386;6.778;2023-04-25T02:49:08;3.17;;;2.73;;
10090;SDS011;5084;51.386;6.778;2023-04-25T02:51:34;4.27;;;2.90;;
10090;SDS011;5084;51.386;6.778;2023-04-25T02:54:00;4.40;;;2.77;;
10090;SDS011;5084;51.386;6.778;2023-04-25T02:56:26;2.67;;;2.43;;
10090;SDS011;5084;51.386;6.778;2023-04-25T02:58:53;6.87;;;3.13;;
10090;SDS011;5084;51.386;6.778;2023-04-25T03:01:19;4.33;;;3.93;;
10090;SDS011;5084;51.386;6.778;2023-04-25T03:03:45;5.07;;;3.53;;
10090;SDS011;5084;51.386;6.778;2023-04-25T03:06:11;3.60;;;2.23;;
10090;SDS011;5084;51.386;6.778;2023-04-25T03:08:37;4.33;;;2.73;;
10090;SDS011;5084;51.386;6.778;2023-04-25T03:11:03;5.37;;;3.13;;
10090;SDS011;5084;51.386;6.778;2023-04-25T03:13:29;4.80;;;3.10;;
10090;SDS011;5084;51.386;6.778;2023-04-25T03:15:55;7.17;;;2.87;;
10090;SDS011;5084;51.386;6.778;2023-04-25T03:18:21;7.07;;;4.00;;
10090;SDS011;5084;51.386;6.778;2023-04-25T03:20:47;7.03;;;3.23;;
10090;SDS011;5084;51.386;6.778;2023-04-25T03:23:13;3.27;;;2.60;;
10090;SDS011;5084;51.386;6.778;2023-04-25T03:25:39;10.37;;;3.57;;
10090;SDS011;5084;51.386;6.778;2023-04-25T03:28:05;6.30;;;3.40;;
10090;SDS011;5084;51.386;6.778;2023-04-25T03:30:32;5.40;;;2.97;;
10090;SDS011;5084;51.386;6.778;2023-04-25T03:32:58;5.10;;;3.33;;
10090;SDS011;5084;51.386;6.778;2023-04-25T03:35:24;9.30;;;3.57;;
10090;SDS011;5084;51.386;6.778;2023-04-25T03:37:50;6.57;;;3.60;;
10090;SDS011;5084;51.386;6.778;2023-04-25T03:40:16;5.57;;;3.67;;
10090;SDS011;5084;51.386;6.778;2023-04-25T03:42:42;6.43;;;2.70;;
10090;SDS011;5084;51.386;6.778;2023-04-25T03:45:08;6.60;;;3.80;;
10090;SDS011;5084;51.386;6.778;2023-04-25T03:47:34;7.97;;;3.73;;
10090;SDS011;5084;51.386;6.778;2023-04-25T03:50:00;4.17;;;3.20;;
10090;SDS011;5084;51.386;6.778;2023-04-25T03:52:28;6.37;;;2.73;;
10090;SDS011;5084;51.386;6.778;2023-04-25T03:54:54;5.73;;;3.60;;
10090;SDS011;5084;51.386;6.778;2023-04-25T03:57:20;5.77;;;3.97;;
10090;SDS011;5084;51.386;6.778;2023-04-25T03:59:46;6.40;;;3.40;;
10090;SDS011;5084;51.386;6.778;2023-04-25T04:02:12;6.63;;;4.30;;
10090;SDS011;5084;51.386;6.778;2023-04-25T04:04:38;7.03;;;3.53;;
10090;SDS011;5084;51.386;6.778;2023-04-25T04:07:04;8.37;;;3.83;;
10090;SDS011;5084;51.386;6.778;2023-04-25T04:09:30;7.13;;;3.30;;
10090;SDS011;5084;51.386;6.778;2023-04-25T04:11:57;9.20;;;3.57;;
10090;SDS011;5084;51.386;6.778;2023-04-25T04:14:23;6.47;;;3.40;;
10090;SDS011;5084;51.386;6.778;2023-04-25T04:16:50;5.47;;;3.10;;
10090;SDS011;5084;51.386;6.778;2023-04-25T04:19:17;8.63;;;3.13;;
10090;SDS011;5084;51.386;6.778;2023-04-25T04:21:43;6.20;;;3.27;;
10090;SDS011;5084;51.386;6.778;2023-04-25T04:24:10;7.57;;;3.57;;
10090;SDS011;5084;51.386;6.778;2023-04-25T04:26:36;6.53;;;3.70;;
10090;SDS011;5084;51.386;6.778;2023-04-25T04:29:03;7.60;;;3.13;;
10090;SDS011;5084;51.386;6.778;2023-04-25T04:31:30;6.03;;;3.17;;
10090;SDS011;5084;51.386;6.778;2023-04-25T04:33:57;8.50;;;3.57;;
10090;SDS011;5084;51.386;6.778;2023-04-25T04:36:24;6.53;;;3.27;;
10090;SDS011;5084;51.386;6.778;2023-04-25T04:38:51;7.30;;;3.97;;
10090;SDS011;5084;51.386;6.778;2023-04-25T04:41:18;4.07;;;3.20;;
10090;SDS011;5084;51.386;6.778;2023-04-25T04:43:45;6.93;;;3.23;;
10090;SDS011;5084;51.386;6.778;2023-04-25T04:46:11;6.10;;;3.87;;
10090;SDS011;5084;51.386;6.778;2023-04-25T04:48:38;7.47;;;3.13;;
10090;SDS011;5084;51.386;6.778;2023-04-25T04:51:05;11.03;;;3.87;;
10090;SDS011;5084;51.386;6.778;2023-04-25T04:53:32;7.77;;;3.67;;
10090;SDS011;5084;51.386;6.778;2023-04-25T04:55:58;4.97;;;2.67;;
10090;SDS011;5084;51.386;6.778;2023-04-25T04:58:25;5.77;;;3.67;;
10090;SDS011;5084;51.386;6.778;2023-04-25T05:00:54;7.90;;;3.90;;
10090;SDS011;5084;51.386;6.778;2023-04-25T05:03:21;6.57;;;3.40;;
10090;SDS011;5084;51.386;6.778;2023-04-25T05:05:47;5.13;;;3.07;;
10090;SDS011;5084;51.386;6.778;2023-04-25T05:08:14;5.97;;;3.20;;
10090;SDS011;5084;51.386;6.778;2023-04-25T05:10:40;3.60;;;2.73;;
10090;SDS011;5084;51.386;6.778;2023-04-25T05:13:07;6.23;;;2.97;;
10090;SDS011;5084;51.386;6.778;2023-04-25T05:15:33;6.13;;;3.07;;
10090;SDS011;5084;51.386;6.778;2023-04-25T05:17:59;4.70;;;3.13;;
10090;SDS011;5084;51.386;6.778;2023-04-25T05:20:26;10.30;;;3.60;;
10090;SDS011;5084;51.386;6.778;2023-04-25T05:22:53;9.03;;;3.90;;
10090;SDS011;5084;51.386;6.778;2023-04-25T05:25:20;6.93;;;3.33;;
10090;SDS011;5084;51.386;6.778;2023-04-25T05:27:46;8.43;;;3.73;;
10090;SDS011;5084;51.386;6.778;2023-04-25T05:30:13;7.30;;;3.83;;
10090;SDS011;5084;51.386;6.778;2023-04-25T05:32:39;7.97;;;3.70;;
10090;SDS011;5084;51.386;6.778;2023-04-25T05:35:06;9.40;;;3.50;;
10090;SDS011;5084;51.386;6.778;2023-04-25T05:37:34;8.73;;;3.50;;
10090;SDS011;5084;51.386;6.778;2023-04-25T05:40:00;9.53;;;4.27;;
10090;SDS011;5084;51.386;6.778;2023-04-25T05:42:26;6.77;;;3.47;;
10090;SDS011;5084;51.386;6.778;2023-04-25T05:44:52;5.17;;;3.03;;
10090;SDS011;5084;51.386;6.778;2023-04-25T05:47:18;7.33;;;3.70;;
10090;SDS011;5084;51.386;6.778;2023-04-25T05:49:45;4.13;;;3.10;;
10090;SDS011;5084;51.386;6.778;2023-04-25T05:52:12;7.43;;;3.60;;
10090;SDS011;5084;51.386;6.778;2023-04-25T05:54:38;5.70;;;3.20;;
10090;SDS011;5084;51.386;6.778;2023-04-25T05:57:05;8.47;;;3.53;;
10090;SDS011;5084;51.386;6.778;2023-04-25T05:59:31;6.60;;;3.63;;
10090;SDS011;5084;51.386;6.778;2023-04-25T06:01:58;6.10;;;3.30;;
10090;SDS011;5084;51.386;6.778;2023-04-25T06:04:24;8.40;;;3.43;;
10090;SDS011;5084;51.386;6.778;2023-04-25T06:06:51;7.07;;;3.70;;
10090;SDS011;5084;51.386;6.778;2023-04-25T06:09:17;5.03;;;3.73;;
10090;SDS011;5084;51.386;6.778;2023-04-25T06:11:44;5.37;;;2.90;;
10090;SDS011;5084;51.386;6.778;2023-04-25T06:14:10;5.57;;;3.23;;
10090;SDS011;5084;51.386;6.778;2023-04-25T06:16:36;5.73;;;3.17;;
10090;SDS011;5084;51.386;6.778;2023-04-25T06:19:02;9.93;;;4.27;;
10090;SDS011;5084;51.386;6.778;2023-04-25T06:21:29;7.13;;;3.53;;
10090;SDS011;5084;51.386;6.778;2023-04-25T06:23:56;10.50;;;3.20;;
10090;SDS011;5084;51.386;6.778;2023-04-25T06:26:23;9.63;;;3.47;;
10090;SDS011;5084;51.386;6.778;2023-04-25T06:28:51;10.10;;;3.80;;
10090;SDS011;5084;51.386;6.778;2023-04-25T06:31:18;8.40;;;3.37;;
10090;SDS011;5084;51.386;6.778;2023-04-25T06:33:44;9.57;;;3.57;;
10090;SDS011;5084;51.386;6.778;2023-04-25T06:36:10;7.17;;;3.93;;
10090;SDS011;5084;51.386;6.778;2023-04-25T06:38:36;9.97;;;3.50;;
10090;SDS011;5084;51.386;6.778;2023-04-25T06:41:03;7.57;;;3.47;;
10090;SDS011;5084;51.386;6.778;2023-04-25T06:43:30;7.93;;;4.23;;
10090;SDS011;5084;51.386;6.778;2023-04-25T06:45:59;7.63;;;4.30;;
10090;SDS011;5084;51.386;6.778;2023-04-25T06:48:26;6.53;;;3.17;;
10090;SDS011;5084;51.386;6.778;2023-04-25T06:50:53;7.07;;;3.30;;
10090;SDS011;5084;51.386;6.778;2023-04-25T06:53:19;10.27;;;3.97;;
10090;SDS011;5084;51.386;6.778;2023-04-25T06:55:45;6.43;;;3.17;;
10090;SDS011;5084;51.386;6.778;2023-04-25T06:58:12;7.27;;;4.00;;
10090;SDS011;5084;51.386;6.778;2023-04-25T07:00:38;13.20;;;3.73;;
10090;SDS011;5084;51.386;6.778;2023-04-25T07:03:05;8.07;;;3.93;;
10090;SDS011;5084;51.386;6.778;2023-04-25T07:05:31;8.53;;;3.47;;
10090;SDS011;5084;51.386;6.778;2023-04-25T07:07:57;10.30;;;3.87;;
10090;SDS011;5084;51.386;6.778;2023-04-25T07:10:25;7.30;;;3.57;;
10090;SDS011;5084;51.386;6.778;2023-04-25T07:12:51;10.23;;;4.43;;
10090;SDS011;5084;51.386;6.778;2023-04-25T07:15:18;7.70;;;4.30;;
10090;SDS011;5084;51.386;6.778;2023-04-25T07:17:44;7.83;;;3.60;;
10090;SDS011;5084;51.386;6.778;2023-04-25T07:20:11;7.40;;;3.73;;
10090;SDS011;5084;51.386;6.778;2023-04-25T07:22:37;7.50;;;4.23;;
10090;SDS011;5084;51.386;6.778;2023-04-25T07:25:04;8.30;;;3.53;;
10090;SDS011;5084;51.386;6.778;2023-04-25T07:27:31;4.47;;;3.30;;
10090;SDS011;5084;51.386;6.778;2023-04-25T07:29:57;7.37;;;3.37;;
10090;SDS011;5084;51.386;6.778;2023-04-25T07:32:24;10.70;;;4.27;;
10090;SDS011;5084;51.386;6.778;2023-04-25T07:34:51;9.40;;;4.30;;
10090;SDS011;5084;51.386;6.778;2023-04-25T07:37:17;12.07;;;4.53;;
10090;SDS011;5084;51.386;6.778;2023-04-25T07:39:44;6.77;;;4.57;;
10090;SDS011;5084;51.386;6.778;2023-04-25T07:42:13;10.60;;;4.97;;
10090;SDS011;5084;51.386;6.778;2023-04-25T07:44:39;14.00;;;5.50;;
10090;SDS011;5084;51.386;6.778;2023-04-25T07:47:08;7.07;;;4.80;;
10090;SDS011;5084;51.386;6.778;2023-04-25T07:49:37;11.03;;;5.03;;
10090;SDS011;5084;51.386;6.778;2023-04-25T07:52:03;11.03;;;4.37;;
10090;SDS011;5084;51.386;6.778;2023-04-25T07:54:31;10.90;;;4.10;;
10090;SDS011;5084;51.386;6.778;2023-04-25T07:56:57;12.57;;;4.67;;
10090;SDS011;5084;51.386;6.778;2023-04-25T07:59:24;7.53;;;4.67;;
10090;SDS011;5084;51.386;6.778;2023-04-25T08:01:51;10.27;;;3.97;;
10090;SDS011;5084;51.386;6.778;2023-04-25T08:04:17;10.50;;;4.13;;
10090;SDS011;5084;51.386;6.778;2023-04-25T08:06:43;10.50;;;4.50;;
10090;SDS011;5084;51.386;6.778;2023-04-25T08:09:10;8.83;;;4.23;;
10090;SDS011;5084;51.386;6.778;2023-04-25T08:11:37;12.33;;;4.20;;
10090;SDS011;5084;51.386;6.778;2023-04-25T08:14:03;10.80;;;4.27;;
10090;SDS011;5084;51.386;6.778;2023-04-25T08:16:29;9.50;;;3.50;;
10090;SDS011;5084;51.386;6.778;2023-04-25T08:18:56;7.17;;;3.70;;
10090;SDS011;5084;51.386;6.778;2023-04-25T08:21:23;6.23;;;3.73;;
10090;SDS011;5084;51.386;6.778;2023-04-25T08:23:50;7.60;;;4.47;;
10090;SDS011;5084;51.386;6.778;2023-04-25T08:26:17;9.77;;;4.43;;
10090;SDS011;5084;51.386;6.778;2023-04-25T08:28:43;7.73;;;3.10;;
10090;SDS011;5084;51.386;6.778;2023-04-25T08:31:09;12.07;;;3.47;;
10090;SDS011;5084;51.386;6.778;2023-04-25T08:33:36;6.03;;;3.57;;
10090;SDS011;5084;51.386;6.778;2023-04-25T08:36:03;4.33;;;2.83;;
10090;SDS011;5084;51.386;6.778;2023-04-25T08:38:30;5.23;;;3.17;;
10090;SDS011;5084;51.386;6.778;2023-04-25T08:40:57;7.10;;;3.60;;
10090;SDS011;5084;51.386;6.778;2023-04-25T08:43:26;4.93;;;2.73;;
10090;SDS011;5084;51.386;6.778;2023-04-25T08:45:52;7.50;;;2.87;;
10090;SDS011;5084;51.386;6.778;2023-04-25T08:48:19;4.30;;;2.83;;
10090;SDS011;5084;51.386;6.778;2023-04-25T08:50:51;6.10;;;2.67;;
10090;SDS011;5084;51.386;6.778;2023-04-25T08:53:19;7.97;;;3.53;;
10090;SDS011;5084;51.386;6.778;2023-04-25T08:55:47;4.93;;;2.83;;
10090;SDS011;5084;51.386;6.778;2023-04-25T08:58:14;4.73;;;2.43;;
10090;SDS011;5084;51.386;6.778;2023-04-25T09:00:41;6.37;;;2.87;;
10090;SDS011;5084;51.386;6.778;2023-04-25T09:03:08;5.43;;;2.43;;
10090;SDS011;5084;51.386;6.778;2023-04-25T09:05:34;7.77;;;2.67;;
10090;SDS011;5084;51.386;6.778;2023-04-25T09:08:01;7.93;;;2.30;;
10090;SDS011;5084;51.386;6.778;2023-04-25T09:10:28;4.63;;;2.37;;
10090;SDS011;5084;51.386;6.778;2023-04-25T09:13:04;6.30;;;2.50;;
10090;SDS011;5084;51.386;6.778;2023-04-25T09:15:32;4.43;;;2.03;;
10090;SDS011;5084;51.386;6.778;2023-04-25T09:17:59;5.03;;;2.20;;
10090;SDS011;5084;51.386;6.778;2023-04-25T09:20:25;2.93;;;1.90;;
10090;SDS011;5084;51.386;6.778;2023-04-25T09:23:02;6.80;;;2.37;;
10090;SDS011;5084;51.386;6.778;2023-04-25T09:25:33;4.20;;;2.20;;
10090;SDS011;5084;51.386;6.778;2023-04-25T09:28:03;6.17;;;2.57;;
10090;SDS011;5084;51.386;6.778;2023-04-25T09:30:30;8.67;;;3.17;;
10090;SDS011;5084;51.386;6.778;2023-04-25T09:32:57;3.20;;;2.07;;
10090;SDS011;5084;51.386;6.778;2023-04-25T09:35:32;3.37;;;2.20;;
10090;SDS011;5084;51.386;6.778;2023-04-25T09:38:06;5.40;;;2.27;;
10090;SDS011;5084;51.386;6.778;2023-04-25T09:40:32;3.77;;;1.90;;
10090;SDS011;5084;51.386;6.778;2023-04-25T09:42:59;3.90;;;1.77;;
10090;SDS011;5084;51.386;6.778;2023-04-25T09:45:25;2.23;;;1.50;;
10090;SDS011;5084;51.386;6.778;2023-04-25T09:47:55;6.00;;;1.97;;
10090;SDS011;5084;51.386;6.778;2023-04-25T09:50:23;3.70;;;1.90;;
10090;SDS011;5084;51.386;6.778;2023-04-25T09:53:03;5.10;;;2.03;;
10090;SDS011;5084;51.386;6.778;2023-04-25T09:55:32;3.33;;;1.97;;
10090;SDS011;5084;51.386;6.778;2023-04-25T09:58:01;5.80;;;2.10;;
10090;SDS011;5084;51.386;6.778;2023-04-25T10:00:31;2.10;;;1.67;;
10090;SDS011;5084;51.386;6.778;2023-04-25T10:02:59;5.13;;;1.73;;
10090;SDS011;5084;51.386;6.778;2023-04-25T10:05:27;6.97;;;2.00;;
10090;SDS011;5084;51.386;6.778;2023-04-25T10:07:57;3.37;;;1.97;;
10090;SDS011;5084;51.386;6.778;2023-04-25T10:10:24;5.53;;;2.50;;
10090;SDS011;5084;51.386;6.778;2023-04-25T10:12:53;4.77;;;2.13;;
10090;SDS011;5084;51.386;6.778;2023-04-25T10:15:20;8.87;;;2.50;;
10090;SDS011;5084;51.386;6.778;2023-04-25T10:17:48;6.80;;;1.90;;
10090;SDS011;5084;51.386;6.778;2023-04-25T10:20:15;1.87;;;1.60;;
10090;SDS011;5084;51.386;6.778;2023-04-25T10:22:42;5.57;;;1.63;;
10090;SDS011;5084;51.386;6.778;2023-04-25T10:25:10;4.43;;;1.70;;
10090;SDS011;5084;51.386;6.778;2023-04-25T10:27:36;4.07;;;1.90;;
10090;SDS011;5084;51.386;6.778;2023-04-25T10:30:15;5.53;;;1.80;;
10090;SDS011;5084;51.386;6.778;2023-04-25T10:32:42;2.77;;;1.90;;
10090;SDS011;5084;51.386;6.778;2023-04-25T10:35:12;8.30;;;1.93;;
10090;SDS011;5084;51.386;6.778;2023-04-25T10:40:25;3.47;;;1.47;;
10090;SDS011;5084;51.386;6.778;2023-04-25T10:42:52;2.53;;;1.77;;
10090;SDS011;5084;51.386;6.778;2023-04-25T10:45:19;5.20;;;1.77;;
10090;SDS011;5084;51.386;6.778;2023-04-25T10:47:46;5.33;;;1.60;;
10090;SDS011;5084;51.386;6.778;2023-04-25T10:50:14;3.00;;;2.10;;
10090;SDS011;5084;51.386;6.778;2023-04-25T10:52:41;3.83;;;1.87;;
10090;SDS011;5084;51.386;6.778;2023-04-25T10:55:08;5.73;;;2.00;;
10090;SDS011;5084;51.386;6.778;2023-04-25T10:57:41;3.73;;;1.47;;
10090;SDS011;5084;51.386;6.778;2023-04-25T11:00:14;3.10;;;1.70;;
10090;SDS011;5084;51.386;6.778;2023-04-25T11:02:42;4.77;;;2.00;;
10090;SDS011;5084;51.386;6.778;2023-04-25T11:05:10;3.07;;;1.43;;
10090;SDS011;5084;51.386;6.778;2023-04-25T11:07:49;4.67;;;1.70;;
10090;SDS011;5084;51.386;6.778;2023-04-25T11:10:16;3.67;;;2.10;;
10090;SDS011;5084;51.386;6.778;2023-04-25T11:12:44;3.40;;;2.37;;
10090;SDS011;5084;51.386;6.778;2023-04-25T11:15:11;6.57;;;1.77;;
10090;SDS011;5084;51.386;6.778;2023-04-25T11:17:38;4.03;;;1.93;;
10090;SDS011;5084;51.386;6.778;2023-04-25T11:20:06;3.30;;;2.50;;
10090;SDS011;5084;51.386;6.778;2023-04-25T11:22:37;6.43;;;2.37;;
10090;SDS011;5084;51.386;6.778;2023-04-25T11:25:09;3.93;;;2.27;;
10090;SDS011;5084;51.386;6.778;2023-04-25T11:27:49;5.80;;;2.63;;
10090;SDS011;5084;51.386;6.778;2023-04-25T11:30:17;3.87;;;2.63;;
10090;SDS011;5084;51.386;6.778;2023-04-25T11:32:44;7.67;;;2.97;;
10090;SDS011;5084;51.386;6.778;2023-04-25T11:35:11;5.43;;;3.03;;
10090;SDS011;5084;51.386;6.778;2023-04-25T11:37:41;8.03;;;2.93;;
10090;SDS011;5084;51.386;6.778;2023-04-25T11:40:07;6.70;;;3.17;;
10090;SDS011;5084;51.386;6.778;2023-04-25T11:42:37;4.80;;;3.27;;
10090;SDS011;5084;51.386;6.778;2023-04-25T11:45:04;4.80;;;2.47;;
10090;SDS011;5084;51.386;6.778;2023-04-25T11:47:31;4.37;;;2.43;;
10090;SDS011;5084;51.386;6.778;2023-04-25T11:50:01;3.43;;;2.60;;
10090;SDS011;5084;51.386;6.778;2023-04-25T11:52:41;3.97;;;2.37;;
10090;SDS011;5084;51.386;6.778;2023-04-25T11:55:08;5.43;;;2.17;;
10090;SDS011;5084;51.386;6.778;2023-04-25T11:57:35;6.57;;;2.63;;
10090;SDS011;5084;51.386;6.778;2023-04-25T12:00:21;5.63;;;2.63;;
10090;SDS011;5084;51.386;6.778;2023-04-25T12:02:51;5.87;;;2.50;;
10090;SDS011;5084;51.386;6.778;2023-04-25T12:05:18;4.43;;;2.17;;
10090;SDS011;5084;51.386;6.778;2023-04-25T12:07:45;11.30;;;2.40;;
10090;SDS011;5084;51.386;6.778;2023-04-25T12:10:12;4.57;;;2.40;;
10090;SDS011;5084;51.386;6.778;2023-04-25T12:12:41;4.30;;;2.13;;
10090;SDS011;5084;51.386;6.778;2023-04-25T12:15:28;6.27;;;2.87;;
10090;SDS011;5084;51.386;6.778;2023-04-25T12:17:54;7.33;;;3.03;;
10090;SDS011;5084;51.386;6.778;2023-04-25T12:20:21;6.87;;;3.80;;
10090;SDS011;5084;51.386;6.778;2023-04-25T12:22:50;8.87;;;3.20;;
10090;SDS011;5084;51.386;6.778;2023-04-25T12:28:36;3.80;;;2.30;;
10090;SDS011;5084;51.386;6.778;2023-04-25T12:30:58;4.50;;;2.17;;
10090;SDS011;5084;51.386;6.778;2023-04-25T12:33:25;3.47;;;2.20;;
10090;SDS011;5084;51.386;6.778;2023-04-25T12:35:52;5.97;;;2.70;;
10090;SDS011;5084;51.386;6.778;2023-04-25T12:38:25;4.33;;;2.00;;
10090;SDS011;5084;51.386;6.778;2023-04-25T12:40:52;2.63;;;1.80;;
10090;SDS011;5084;51.386;6.778;2023-04-25T12:43:18;2.13;;;1.90;;
10090;SDS011;5084;51.386;6.778;2023-04-25T12:45:48;5.47;;;2.27;;
10090;SDS011;5084;51.386;6.778;2023-04-25T12:48:16;4.90;;;2.30;;
10090;SDS011;5084;51.386;6.778;2023-04-25T12:50:43;4.50;;;2.50;;
10090;SDS011;5084;51.386;6.778;2023-04-25T12:53:09;3.03;;;1.90;;
10090;SDS011;5084;51.386;6.778;2023-04-25T12:55:37;2.73;;;1.80;;
10090;SDS011;5084;51.386;6.778;2023-04-25T12:58:03;3.43;;;1.80;;
10090;SDS011;5084;51.386;6.778;2023-04-25T13:00:30;2.77;;;1.87;;
10090;SDS011;5084;51.386;6.778;2023-04-25T13:02:56;5.13;;;2.30;;
10090;SDS011;5084;51.386;6.778;2023-04-25T13:05:23;3.47;;;2.07;;
10090;SDS011;5084;51.386;6.778;2023-04-25T13:07:49;3.80;;;2.10;;
10090;SDS011;5084;51.386;6.778;2023-04-25T13:10:16;5.17;;;1.90;;
10090;SDS011;5084;51.386;6.778;2023-04-25T13:12:43;3.47;;;1.80;;
10090;SDS011;5084;51.386;6.778;2023-04-25T13:15:09;4.30;;;1.83;;
10090;SDS011;5084;51.386;6.778;2023-04-25T13:17:37;2.23;;;1.40;;
10090;SDS011;5084;51.386;6.778;2023-04-25T13:20:04;4.43;;;1.93;;
10090;SDS011;5084;51.386;6.778;2023-04-25T13:22:34;3.23;;;2.17;;
10090;SDS011;5084;51.386;6.778;2023-04-25T13:25:02;4.87;;;2.43;;
10090;SDS011;5084;51.386;6.778;2023-04-25T13:27:29;4.00;;;1.83;;
10090;SDS011;5084;51.386;6.778;2023-04-25T13:29:58;6.67;;;1.60;;
10090;SDS011;5084;51.386;6.778;2023-04-25T13:32:24;3.03;;;1.60;;
10090;SDS011;5084;51.386;6.778;2023-04-25T13:34:51;4.63;;;2.03;;
10090;SDS011;5084;51.386;6.778;2023-04-25T13:37:17;4.47;;;1.80;;
10090;SDS011;5084;51.386;6.778;2023-04-25T13:39:44;2.57;;;1.57;;
10090;SDS011;5084;51.386;6.778;2023-04-25T13:42:11;3.23;;;1.93;;
10090;SDS011;5084;51.386;6.778;2023-04-25T13:44:37;4.97;;;2.47;;
10090;SDS011;5084;51.386;6.778;2023-04-25T13:47:03;5.50;;;2.77;;
10090;SDS011;5084;51.386;6.778;2023-04-25T13:49:30;5.57;;;2.37;;
10090;SDS011;5084;51.386;6.778;2023-04-25T13:51:57;5.27;;;2.33;;
10090;SDS011;5084;51.386;6.778;2023-04-25T13:54:23;3.93;;;2.03;;
10090;SDS011;5084;51.386;6.778;2023-04-25T13:56:49;2.93;;;2.07;;
10090;SDS011;5084;51.386;6.778;2023-04-25T13:59:15;2.97;;;1.57;;
10090;SDS011;5084;51.386;6.778;2023-04-25T14:01:42;4.37;;;1.77;;
10090;SDS011;5084;51.386;6.778;2023-04-25T14:04:08;5.27;;;2.17;;
10090;SDS011;5084;51.386;6.778;2023-04-25T14:06:35;2.17;;;1.23;;
10090;SDS011;5084;51.386;6.778;2023-04-25T14:09:01;3.77;;;1.93;;
10090;SDS011;5084;51.386;6.778;2023-04-25T14:11:29;3.80;;;2.10;;
10090;SDS011;5084;51.386;6.778;2023-04-25T14:13:56;5.60;;;2.17;;
10090;SDS011;5084;51.386;6.778;2023-04-25T14:16:22;2.13;;;1.67;;
10090;SDS011;5084;51.386;6.778;2023-04-25T14:18:49;4.13;;;1.53;;
10090;SDS011;5084;51.386;6.778;2023-04-25T14:21:15;2.60;;;2.33;;
10090;SDS011;5084;51.386;6.778;2023-04-25T14:23:42;4.00;;;1.67;;
10090;SDS011;5084;51.386;6.778;2023-04-25T14:26:08;4.03;;;1.63;;
10090;SDS011;5084;51.386;6.778;2023-04-25T14:28:37;3.13;;;2.33;;
10090;SDS011;5084;51.386;6.778;2023-04-25T14:31:03;5.13;;;1.50;;
10090;SDS011;5084;51.386;6.778;2023-04-25T14:33:30;2.33;;;1.43;;
10090;SDS011;5084;51.386;6.778;2023-04-25T14:35:56;3.20;;;1.93;;
10090;SDS011;5084;51.386;6.778;2023-04-25T14:38:24;2.33;;;1.53;;
10090;SDS011;5084;51.386;6.778;2023-04-25T14:40:51;2.13;;;1.50;;
10090;SDS011;5084;51.386;6.778;2023-04-25T14:43:19;1.43;;;1.33;;
10090;SDS011;5084;51.386;6.778;2023-04-25T14:45:45;4.33;;;1.77;;
10090;SDS011;5084;51.386;6.778;2023-04-25T14:48:11;3.10;;;1.50;;
10090;SDS011;5084;51.386;6.778;2023-04-25T14:50:38;4.30;;;1.50;;
10090;SDS011;5084;51.386;6.778;2023-04-25T14:53:05;6.33;;;1.70;;
10090;SDS011;5084;51.386;6.778;2023-04-25T14:55:31;2.60;;;1.63;;
10090;SDS011;5084;51.386;6.778;2023-04-25T14:57:58;2.20;;;1.87;;
10090;SDS011;5084;51.386;6.778;2023-04-25T15:00:25;4.17;;;1.83;;
10090;SDS011;5084;51.386;6.778;2023-04-25T15:02:51;4.70;;;1.80;;
10090;SDS011;5084;51.386;6.778;2023-04-25T15:05:18;7.65;;;2.00;;